Time;durP1;ratioP1;P1;durP2;ratioP2;P2;SDS_P1;SDS_P2;PMS_P1;PMS_P2;Temp;Humidity;BMP_temperature;BMP_pressure;BME280_temperature;BME280_humidity;BME280_pressure;Samples;Min_cycle;Max_cycle;Signal;HPM_P1;HPM_P2
2023/03/12 00:00:06;;;;;;;3.67;1.20;;;0.50;99.90;;;;;;5034037;28;20080;-79
2023/03/12 00:02:32;;;;;;;4.47;1.25;;;0.50;99.90;;;;;;5016787;28;20092;-79
2023/03/12 00:04:57;;;;;;;2.33;1.10;;;0.90;99.90;;;;;;4984093;28;20041;-80
2023/03/12 00:07:23;;;;;;;4.53;1.33;;;0.50;99.90;;;;;;5033553;28;20045;-80
2023/03/12 00:09:49;;;;;;;2.83;1.15;;;0.80;99.90;;;;;;4983705;28;20777;-80
2023/03/12 00:12:14;;;;;;;3.25;0.98;;;0.60;99.90;;;;;;5034135;28;20050;-80
2023/03/12 00:14:40;;;;;;;2.53;1.33;;;0.50;99.90;;;;;;4983873;28;20084;-80
2023/03/12 00:17:06;;;;;;;4.95;1.25;;;0.40;99.90;;;;;;5016292;28;20049;-79
2023/03/12 00:19:31;;;;;;;2.67;1.13;;;1.70;99.90;;;;;;5016055;28;20054;-81
2023/03/12 00:21:57;;;;;;;6.18;1.23;;;0.70;99.90;;;;;;5016323;28;20045;-79
2023/03/12 00:24:23;;;;;;;2.95;1.70;;;1.00;99.90;;;;;;5033622;28;20306;-79
2023/03/12 00:26:49;;;;;;;3.35;1.77;;;0.80;99.90;;;;;;5016040;28;20110;-80
2023/03/12 00:29:15;;;;;;;2.80;1.55;;;0.40;99.90;;;;;;5016537;28;20058;-79
2023/03/12 00:31:40;;;;;;;2.75;1.23;;;0.60;99.90;;;;;;5015745;28;20409;-79
2023/03/12 00:34:06;;;;;;;4.25;1.65;;;0.60;99.90;;;;;;5015991;28;20052;-80
2023/03/12 00:36:32;;;;;;;3.58;1.30;;;0.80;99.90;;;;;;4999259;28;20049;-79
2023/03/12 00:39:00;;;;;;;2.20;1.35;;;0.80;99.90;;;;;;4983191;28;20049;-79
2023/03/12 00:41:26;;;;;;;1.75;1.20;;;1.00;99.90;;;;;;5033810;28;20118;-80
2023/03/12 00:43:52;;;;;;;5.05;1.17;;;1.30;99.90;;;;;;5033308;28;20041;-79
2023/03/12 00:46:18;;;;;;;3.25;1.20;;;1.60;99.90;;;;;;4999779;28;20053;-79
2023/03/12 00:48:44;;;;;;;3.63;1.13;;;0.60;99.90;;;;;;4999866;28;20122;-79
2023/03/12 00:51:10;;;;;;;3.33;0.95;;;1.00;99.90;;;;;;5033502;28;20037;-79
2023/03/12 00:53:36;;;;;;;1.75;0.90;;;1.70;99.90;;;;;;5033196;28;20052;-79
2023/03/12 00:56:03;;;;;;;2.25;1.00;;;1.20;99.90;;;;;;5015966;28;20037;-78
2023/03/12 00:58:29;;;;;;;3.40;1.20;;;0.30;99.90;;;;;;5016087;28;20037;-78
2023/03/12 01:00:55;;;;;;;3.70;1.10;;;0.70;99.90;;;;;;5016275;28;20076;-79
2023/03/12 01:03:20;;;;;;;1.65;1.13;;;0.70;99.90;;;;;;4999733;28;20046;-78
2023/03/12 01:05:52;;;;;;;4.78;1.38;;;0.10;99.90;;;;;;4998994;28;20049;-77
2023/03/12 01:08:19;;;;;;;4.53;1.25;;;0.40;99.90;;;;;;4999511;28;20037;-78
2023/03/12 01:10:45;;;;;;;3.13;1.05;;;0.60;99.90;;;;;;5015876;28;20111;-78
2023/03/12 01:13:10;;;;;;;2.65;1.10;;;0.50;99.90;;;;;;5033406;28;20511;-78
2023/03/12 01:15:37;;;;;;;3.53;1.60;;;0.20;99.90;;;;;;4999304;28;20051;-77
2023/03/12 01:18:02;;;;;;;2.92;1.40;;;1.60;99.90;;;;;;4999245;28;20049;-78
2023/03/12 01:20:28;;;;;;;2.65;1.30;;;0.30;99.90;;;;;;5033364;28;20152;-78
2023/03/12 01:22:54;;;;;;;4.63;1.50;;;0.40;99.90;;;;;;5015415;28;20056;-77
2023/03/12 01:25:19;;;;;;;6.63;1.65;;;0.10;99.90;;;;;;5033346;28;20478;-77
2023/03/12 01:27:45;;;;;;;3.92;1.30;;;0.40;99.90;;;;;;4999452;28;20473;-77
2023/03/12 01:30:12;;;;;;;3.28;1.50;;;1.20;99.90;;;;;;5015949;28;20111;-77
2023/03/12 01:32:37;;;;;;;2.80;1.30;;;0.20;99.90;;;;;;5015316;28;20401;-77
2023/03/12 01:35:03;;;;;;;2.88;1.52;;;0.40;99.90;;;;;;5015428;28;20045;-77
2023/03/12 01:37:31;;;;;;;2.58;1.55;;;0.20;99.90;;;;;;5032398;28;20053;-77
2023/03/12 01:39:57;;;;;;;2.72;1.27;;;0.40;99.90;;;;;;4983363;28;20508;-77
2023/03/12 01:42:23;;;;;;;2.13;1.33;;;0.30;99.90;;;;;;5000533;28;20049;-76
2023/03/12 01:44:57;;;;;;;3.58;1.60;;;1.00;99.90;;;;;;5036482;28;20493;-77
2023/03/12 01:47:23;;;;;;;2.22;1.30;;;0.30;99.90;;;;;;5018541;28;20545;-76
2023/03/12 01:49:52;;;;;;;2.55;1.55;;;1.10;99.90;;;;;;5036106;28;20486;-76
2023/03/12 01:52:26;;;;;;;4.90;1.60;;;0.20;99.90;;;;;;5018875;28;20041;-76
2023/03/12 01:55:15;;;;;;;2.50;1.30;;;0.10;99.90;;;;;;5002424;28;20457;-76
2023/03/12 01:57:54;;;;;;;3.45;1.63;;;0.20;99.90;;;;;;5002339;28;20527;-76
2023/03/12 02:00:25;;;;;;;3.50;1.67;;;0.00;99.90;;;;;;5002352;28;20055;-76
2023/03/12 02:02:58;;;;;;;2.60;1.60;;;-0.10;99.90;;;;;;5036094;28;20401;-76
2023/03/12 02:05:51;;;;;;;3.08;1.60;;;0.40;99.90;;;;;;5019011;28;20411;-76
2023/03/12 02:08:17;;;;;;;3.28;1.25;;;1.50;99.90;;;;;;5018017;28;20515;-76
2023/03/12 02:10:44;;;;;;;3.28;1.70;;;0.40;99.90;;;;;;5018025;28;20075;-77
2023/03/12 02:13:10;;;;;;;4.25;1.95;;;0.40;99.90;;;;;;5036188;28;20057;-77
2023/03/12 02:15:37;;;;;;;3.47;2.08;;;1.20;99.90;;;;;;5002157;28;20053;-77
2023/03/12 02:18:08;;;;;;;3.20;2.10;;;0.10;99.90;;;;;;5035886;28;20060;-76
2023/03/12 02:20:54;;;;;;;3.00;1.60;;;0.20;99.90;;;;;;5018213;28;20076;-77
2023/03/12 02:23:41;;;;;;;4.28;2.10;;;0.00;99.90;;;;;;5017210;28;20164;-77
2023/03/12 02:26:09;;;;;;;4.72;2.20;;;0.20;99.90;;;;;;5018214;28;20080;-75
2023/03/12 02:28:41;;;;;;;5.63;2.10;;;0.40;99.90;;;;;;5018091;28;20497;-77
2023/03/12 02:31:09;;;;;;;2.90;1.85;;;0.30;99.90;;;;;;5035657;28;20046;-77
2023/03/12 02:33:35;;;;;;;4.22;1.90;;;0.50;99.90;;;;;;5001611;28;20049;-77
2023/03/12 02:36:00;;;;;;;6.95;2.85;;;0.20;99.90;;;;;;5017669;28;20554;-77
2023/03/12 02:38:46;;;;;;;4.57;2.17;;;0.70;99.90;;;;;;5035354;28;20037;-76
2023/03/12 02:41:33;;;;;;;7.47;2.45;;;0.30;99.90;;;;;;5035599;28;20049;-76
2023/03/12 02:44:08;;;;;;;4.15;1.90;;;0.20;99.90;;;;;;5035431;28;20092;-77
2023/03/12 02:46:46;;;;;;;3.75;1.83;;;0.30;99.90;;;;;;5035404;28;20049;-76
2023/03/12 02:49:13;;;;;;;3.75;1.65;;;0.60;99.90;;;;;;5018040;28;20049;-76
2023/03/12 02:51:40;;;;;;;4.07;1.80;;;1.20;99.90;;;;;;5017792;28;20392;-76
2023/03/12 02:54:06;;;;;;;4.72;1.77;;;0.40;99.90;;;;;;5017467;28;20050;-76
2023/03/12 02:56:32;;;;;;;2.42;1.45;;;0.30;99.90;;;;;;5017530;28;20057;-77
2023/03/12 02:58:58;;;;;;;4.53;1.77;;;0.70;99.90;;;;;;5001134;28;20049;-77
2023/03/12 03:01:25;;;;;;;2.30;1.27;;;0.20;99.90;;;;;;5017431;28;20088;-75
2023/03/12 03:03:51;;;;;;;2.55;1.30;;;0.60;99.90;;;;;;5034941;28;20497;-76
2023/03/12 03:06:17;;;;;;;4.07;1.77;;;1.10;99.90;;;;;;5016967;28;20081;-76
2023/03/12 03:08:43;;;;;;;3.88;1.58;;;0.60;99.90;;;;;;5017193;28;20037;-76
2023/03/12 03:11:09;;;;;;;3.78;2.05;;;1.00;99.90;;;;;;5034504;28;20508;-76
2023/03/12 03:13:35;;;;;;;3.05;1.30;;;0.80;99.90;;;;;;4985211;28;20073;-76
2023/03/12 03:16:02;;;;;;;3.13;1.42;;;0.80;99.90;;;;;;5017134;28;20041;-76
2023/03/12 03:18:29;;;;;;;4.30;1.55;;;1.00;99.90;;;;;;5001022;28;20046;-75
2023/03/12 03:21:01;;;;;;;3.97;1.50;;;0.90;99.90;;;;;;5017204;28;20088;-75
2023/03/12 03:23:26;;;;;;;3.50;1.60;;;0.30;99.90;;;;;;5034565;28;20533;-75
2023/03/12 03:25:52;;;;;;;4.72;1.52;;;0.50;99.90;;;;;;5034480;28;20084;-75
2023/03/12 03:28:19;;;;;;;4.38;2.28;;;1.20;99.90;;;;;;5016965;28;20397;-76
2023/03/12 03:30:45;;;;;;;4.22;1.92;;;0.60;99.90;;;;;;5001012;28;20107;-78
2023/03/12 03:33:11;;;;;;;4.63;1.98;;;0.90;99.90;;;;;;5017062;28;20049;-77
2023/03/12 03:35:37;;;;;;;3.80;2.08;;;0.60;99.90;;;;;;5017098;28;20539;-77
2023/03/12 03:38:03;;;;;;;4.60;2.45;;;0.80;99.90;;;;;;5015985;28;20049;-78
2023/03/12 03:40:29;;;;;;;5.25;2.38;;;0.50;99.90;;;;;;5034084;28;20401;-78
2023/03/12 03:42:55;;;;;;;6.30;2.40;;;0.60;99.90;;;;;;5016663;28;20053;-77
2023/03/12 03:45:21;;;;;;;6.38;2.53;;;0.50;99.90;;;;;;5016518;28;20581;-77
2023/03/12 03:47:46;;;;;;;4.07;2.22;;;1.20;99.90;;;;;;5000245;28;20140;-76
2023/03/12 03:50:12;;;;;;;3.90;2.00;;;0.90;99.90;;;;;;5000202;28;20401;-77
2023/03/12 03:52:38;;;;;;;3.70;2.28;;;1.00;99.90;;;;;;5034142;28;20073;-77
2023/03/12 03:55:04;;;;;;;2.45;2.00;;;0.80;99.90;;;;;;4999867;28;20060;-77
2023/03/12 03:57:30;;;;;;;3.80;2.15;;;0.80;99.90;;;;;;5034076;28;20056;-78
2023/03/12 03:59:57;;;;;;;4.70;2.53;;;0.90;99.90;;;;;;4999960;28;20041;-77
2023/03/12 04:02:24;;;;;;;4.15;1.90;;;0.90;99.90;;;;;;5016638;28;20072;-77
2023/03/12 04:04:51;;;;;;;3.90;2.17;;;0.70;99.90;;;;;;5015768;28;20485;-78
2023/03/12 04:07:16;;;;;;;4.60;2.00;;;1.70;99.90;;;;;;5015680;28;20041;-78
2023/03/12 04:09:42;;;;;;;3.20;1.83;;;0.70;99.90;;;;;;5033503;28;20399;-78
2023/03/12 04:12:08;;;;;;;4.57;1.63;;;0.70;99.90;;;;;;5015724;28;20493;-78
2023/03/12 04:14:34;;;;;;;5.15;2.33;;;1.00;99.90;;;;;;5033939;28;20049;-78
2023/03/12 04:16:59;;;;;;;4.60;2.35;;;0.80;99.90;;;;;;5016249;28;20113;-79
2023/03/12 04:19:25;;;;;;;3.08;1.80;;;0.70;99.90;;;;;;5033592;28;20092;-79
2023/03/12 04:21:51;;;;;;;2.92;1.80;;;1.80;99.90;;;;;;5033618;28;20049;-79
2023/03/12 04:24:19;;;;;;;2.80;2.08;;;1.00;99.90;;;;;;5033467;28;20038;-78
2023/03/12 04:26:45;;;;;;;4.07;2.10;;;0.90;99.90;;;;;;5000237;28;20134;-78
2023/03/12 04:29:10;;;;;;;5.32;2.13;;;0.80;99.90;;;;;;5016058;28;20133;-78
2023/03/12 04:31:36;;;;;;;4.60;1.83;;;1.40;99.90;;;;;;5015913;28;20045;-78
2023/03/12 04:34:02;;;;;;;3.15;1.58;;;0.70;99.90;;;;;;5033516;28;20072;-78
2023/03/12 04:36:28;;;;;;;4.13;1.88;;;0.80;99.90;;;;;;5015400;28;20045;-78
2023/03/12 04:38:55;;;;;;;4.68;2.13;;;1.60;99.90;;;;;;5015631;28;20511;-78
2023/03/12 04:41:21;;;;;;;4.22;1.77;;;0.80;99.90;;;;;;5016222;28;20088;-78
2023/03/12 04:43:46;;;;;;;5.55;2.53;;;1.40;99.90;;;;;;4999515;28;20053;-78
2023/03/12 04:46:12;;;;;;;6.18;2.10;;;1.00;99.90;;;;;;5015819;28;20049;-78
2023/03/12 04:48:38;;;;;;;6.75;2.53;;;0.90;99.90;;;;;;5015620;28;20041;-78
2023/03/12 04:51:04;;;;;;;6.70;2.35;;;1.00;99.90;;;;;;5015534;28;20068;-78
2023/03/12 04:53:30;;;;;;;6.78;2.10;;;1.00;99.90;;;;;;5033323;28;20050;-78
2023/03/12 04:55:56;;;;;;;4.43;1.98;;;0.80;99.90;;;;;;5015853;28;20052;-78
2023/03/12 04:58:22;;;;;;;4.88;2.10;;;1.00;99.90;;;;;;5033389;28;20046;-78
2023/03/12 05:00:49;;;;;;;3.97;2.25;;;1.10;99.90;;;;;;5015899;28;20417;-78
2023/03/12 05:03:15;;;;;;;3.70;2.20;;;1.00;99.90;;;;;;5015742;28;20053;-78
2023/03/12 05:05:41;;;;;;;4.60;2.60;;;0.90;99.90;;;;;;5032978;28;20075;-78
2023/03/12 05:08:07;;;;;;;4.43;2.35;;;0.90;99.90;;;;;;5015006;28;20050;-78
2023/03/12 05:10:32;;;;;;;5.32;2.50;;;0.90;99.90;;;;;;5015341;28;20053;-78
2023/03/12 05:12:58;;;;;;;4.65;2.47;;;1.00;99.90;;;;;;4999308;28;20137;-78
2023/03/12 05:15:25;;;;;;;6.30;2.63;;;0.80;99.90;;;;;;5033291;28;20053;-78
2023/03/12 05:17:50;;;;;;;4.50;2.45;;;0.80;99.90;;;;;;5017692;28;20048;-78
2023/03/12 05:20:16;;;;;;;6.95;3.30;;;1.40;99.90;;;;;;5037159;28;20045;-78
2023/03/12 05:22:42;;;;;;;3.45;2.88;;;1.00;99.90;;;;;;5002738;28;20076;-78
2023/03/12 05:25:09;;;;;;;5.25;2.83;;;1.70;99.90;;;;;;5019452;28;20046;-78
2023/03/12 05:27:34;;;;;;;4.53;2.75;;;0.90;99.90;;;;;;5002872;28;20049;-77
2023/03/12 05:30:01;;;;;;;4.95;3.00;;;1.70;99.90;;;;;;5036774;28;20038;-78
2023/03/12 05:32:27;;;;;;;3.70;2.72;;;0.90;99.90;;;;;;5036763;28;20042;-78
2023/03/12 05:34:52;;;;;;;7.07;3.55;;;0.90;99.90;;;;;;5019011;28;20045;-78
2023/03/12 05:37:18;;;;;;;10.52;3.30;;;2.70;99.90;;;;;;5002176;28;20402;-78
2023/03/12 05:39:46;;;;;;;5.55;3.25;;;1.80;99.90;;;;;;5002694;28;20077;-78
2023/03/12 05:42:13;;;;;;;5.22;3.22;;;2.20;99.90;;;;;;5036683;28;20059;-78
2023/03/12 05:44:40;;;;;;;7.10;3.40;;;1.30;99.90;;;;;;5036744;28;20045;-78
2023/03/12 05:47:06;;;;;;;7.30;3.67;;;1.10;99.90;;;;;;5036591;28;20067;-78
2023/03/12 05:49:32;;;;;;;6.28;3.40;;;0.90;99.90;;;;;;5018962;28;20042;-78
2023/03/12 05:51:58;;;;;;;6.32;3.42;;;1.10;99.90;;;;;;5036195;28;20045;-78
2023/03/12 05:54:23;;;;;;;5.45;3.60;;;1.10;99.90;;;;;;5002632;28;20566;-77
2023/03/12 05:56:50;;;;;;;6.47;3.42;;;0.90;99.90;;;;;;5036554;28;20067;-78
2023/03/12 05:59:15;;;;;;;6.47;4.05;;;1.30;99.90;;;;;;5018572;28;20460;-78
2023/03/12 06:01:41;;;;;;;5.03;3.60;;;0.90;99.90;;;;;;5036295;28;20085;-78
2023/03/12 06:04:07;;;;;;;4.70;3.50;;;1.20;99.90;;;;;;5018699;28;20045;-78
2023/03/12 06:06:35;;;;;;;6.70;3.70;;;1.10;99.90;;;;;;5017993;28;20247;-78
2023/03/12 06:09:02;;;;;;;8.60;3.85;;;0.80;99.90;;;;;;5018517;28;20057;-78
2023/03/12 06:11:28;;;;;;;5.55;4.07;;;1.20;99.90;;;;;;5018573;28;20053;-77
2023/03/12 06:13:56;;;;;;;7.60;4.05;;;1.00;99.90;;;;;;5018683;28;20135;-78
2023/03/12 06:16:24;;;;;;;6.43;4.30;;;1.50;99.90;;;;;;5018167;28;20087;-77
2023/03/12 06:18:54;;;;;;;5.47;4.30;;;1.20;99.90;;;;;;5035731;28;20071;-78
2023/03/12 06:21:22;;;;;;;6.97;4.05;;;2.00;99.90;;;;;;5036085;28;20143;-78
2023/03/12 06:23:49;;;;;;;6.88;4.38;;;1.30;99.90;;;;;;5037420;28;20077;-78
2023/03/12 06:26:15;;;;;;;6.65;4.55;;;1.40;99.90;;;;;;5036032;28;20049;-78
2023/03/12 06:28:41;;;;;;;5.90;3.80;;;1.10;99.90;;;;;;5035232;28;20519;-78
2023/03/12 06:31:07;;;;;;;6.80;4.43;;;1.10;99.90;;;;;;5018073;28;20049;-78
2023/03/12 06:33:34;;;;;;;7.82;3.92;;;2.20;99.90;;;;;;5017863;28;20091;-78
2023/03/12 06:36:02;;;;;;;6.28;3.92;;;2.00;99.90;;;;;;5035549;28;20133;-78
2023/03/12 06:38:28;;;;;;;9.32;3.88;;;1.30;99.90;;;;;;5017500;28;20470;-78
2023/03/12 06:40:59;;;;;;;9.55;3.78;;;1.80;99.90;;;;;;5035498;28;20045;-78
2023/03/12 06:43:26;;;;;;;7.28;4.30;;;1.40;99.90;;;;;;5001642;28;20041;-78
2023/03/12 06:45:54;;;;;;;5.63;3.90;;;2.00;99.90;;;;;;5035147;28;20053;-78
2023/03/12 06:48:20;;;;;;;6.35;4.03;;;1.30;99.90;;;;;;5035308;28;20073;-78
2023/03/12 06:50:46;;;;;;;7.97;4.00;;;1.60;99.90;;;;;;5002319;28;20053;-78
2023/03/12 06:53:12;;;;;;;7.65;3.78;;;1.40;99.90;;;;;;5035381;28;20045;-78
2023/03/12 06:55:38;;;;;;;7.20;3.78;;;1.20;99.90;;;;;;5017653;28;20045;-78
2023/03/12 06:58:04;;;;;;;6.75;4.35;;;1.20;99.90;;;;;;5034867;28;20102;-78
2023/03/12 07:00:31;;;;;;;5.18;3.95;;;1.80;99.90;;;;;;5017255;28;20049;-78
2023/03/12 07:02:57;;;;;;;9.25;4.45;;;1.20;99.90;;;;;;5035188;28;20041;-78
2023/03/12 07:05:24;;;;;;;5.70;3.97;;;2.50;99.90;;;;;;5017995;28;20191;-78
2023/03/12 07:07:50;;;;;;;8.10;5.28;;;1.90;99.90;;;;;;5016970;28;20064;-78
2023/03/12 07:10:16;;;;;;;5.25;4.25;;;1.40;99.90;;;;;;5017687;28;20453;-78
2023/03/12 07:12:43;;;;;;;7.50;3.92;;;1.30;99.90;;;;;;5016786;28;20049;-78
2023/03/12 07:15:09;;;;;;;7.45;4.20;;;1.80;99.90;;;;;;5017466;28;20041;-78
2023/03/12 07:17:35;;;;;;;6.97;4.28;;;1.30;99.90;;;;;;5034558;28;20096;-78
2023/03/12 07:20:01;;;;;;;8.00;3.85;;;1.90;99.90;;;;;;5034723;28;20045;-78
2023/03/12 07:22:27;;;;;;;6.05;4.28;;;2.00;99.90;;;;;;5034892;28;20053;-78
2023/03/12 07:24:53;;;;;;;6.07;3.97;;;2.80;99.90;;;;;;5049455;28;20056;-78
2023/03/12 07:27:18;;;;;;;6.30;4.03;;;1.60;99.90;;;;;;5048709;28;20052;-77
2023/03/12 07:29:44;;;;;;;5.18;4.28;;;1.40;99.90;;;;;;5017506;28;20191;-78
2023/03/12 07:32:11;;;;;;;6.43;4.60;;;1.60;99.90;;;;;;5017019;28;20087;-78
2023/03/12 07:34:36;;;;;;;6.38;4.80;;;1.70;99.90;;;;;;5000635;28;20448;-78
2023/03/12 07:37:02;;;;;;;8.05;4.25;;;1.60;99.90;;;;;;5033983;28;20136;-78
2023/03/12 07:39:28;;;;;;;6.07;4.35;;;1.70;99.90;;;;;;5033470;28;20048;-75
2023/03/12 07:41:54;;;;;;;7.38;4.53;;;1.60;99.90;;;;;;5017196;28;20050;-77
2023/03/12 07:44:20;;;;;;;6.35;4.15;;;1.80;99.90;;;;;;5000990;28;20481;-85
2023/03/12 07:46:45;;;;;;;7.22;4.40;;;3.10;99.90;;;;;;5036507;28;20041;-77
2023/03/12 07:49:11;;;;;;;6.95;4.60;;;1.70;99.90;;;;;;5054624;28;20159;-77
2023/03/12 07:51:37;;;;;;;9.25;5.05;;;2.10;99.90;;;;;;5036887;28;20056;-76
2023/03/12 07:54:03;;;;;;;6.30;4.47;;;2.20;99.90;;;;;;5036670;28;20037;-76
2023/03/12 07:56:28;;;;;;;7.75;5.13;;;1.70;99.90;;;;;;5036597;28;20055;-73
2023/03/12 07:58:54;;;;;;;5.93;4.50;;;1.60;99.90;;;;;;4991601;28;20041;-73
2023/03/12 08:01:20;;;;;;;7.47;5.28;;;1.60;99.90;;;;;;5024334;28;20046;-76
2023/03/12 08:03:46;;;;;;;7.35;4.70;;;2.50;99.90;;;;;;5006947;28;20117;-75
2023/03/12 08:06:11;;;;;;;8.73;5.18;;;1.80;99.90;;;;;;4989117;28;20073;-77
2023/03/12 08:08:40;;;;;;;6.88;5.40;;;1.90;99.90;;;;;;5006278;28;20080;-76
2023/03/12 08:11:07;;;;;;;7.00;5.03;;;2.00;99.90;;;;;;5006779;28;20096;-76
2023/03/12 08:13:33;;;;;;;8.30;5.53;;;1.60;99.90;;;;;;5005210;28;20048;-76
2023/03/12 08:15:59;;;;;;;6.72;5.40;;;2.00;99.90;;;;;;5023740;28;20064;-75
2023/03/12 08:18:26;;;;;;;8.13;5.65;;;1.90;99.90;;;;;;4990669;28;20405;-77
2023/03/12 08:20:53;;;;;;;8.35;5.43;;;1.90;99.90;;;;;;5022320;28;20045;-76
2023/03/12 08:23:19;;;;;;;7.43;5.40;;;1.90;99.90;;;;;;5018441;28;20050;-76
2023/03/12 08:25:47;;;;;;;8.52;5.75;;;2.10;99.90;;;;;;4980593;28;20088;-76
2023/03/12 08:28:14;;;;;;;8.52;6.03;;;1.70;99.90;;;;;;5014691;28;20050;-75
2023/03/12 08:30:54;;;;;;;8.45;6.03;;;1.90;99.90;;;;;;4997063;28;20065;-75
2023/03/12 08:33:20;;;;;;;9.40;6.90;;;1.80;99.90;;;;;;4996506;28;20139;-76
2023/03/12 08:35:47;;;;;;;8.80;6.43;;;2.70;99.90;;;;;;4980214;28;20050;-74
2023/03/12 08:38:13;;;;;;;10.45;6.20;;;1.70;99.90;;;;;;4995899;28;20081;-75
2023/03/12 08:40:39;;;;;;;8.73;5.88;;;1.90;99.90;;;;;;4996437;28;20143;-75
2023/03/12 08:43:06;;;;;;;9.00;5.72;;;2.30;99.90;;;;;;4996443;28;20116;-75
2023/03/12 08:45:32;;;;;;;11.00;6.55;;;2.60;99.90;;;;;;5014092;28;20054;-74
2023/03/12 08:47:58;;;;;;;8.07;6.10;;;1.70;99.90;;;;;;5014713;28;20092;-73
2023/03/12 08:50:27;;;;;;;8.90;6.20;;;1.70;99.90;;;;;;4980637;28;20053;-74
2023/03/12 08:52:54;;;;;;;10.23;6.47;;;1.80;99.90;;;;;;5000948;28;20088;-74
2023/03/12 08:55:19;;;;;;;10.55;6.60;;;1.70;99.90;;;;;;4968184;28;20053;-74
2023/03/12 08:57:46;;;;;;;8.20;6.15;;;1.70;99.90;;;;;;5000440;28;20072;-75
2023/03/12 09:00:14;;;;;;;7.60;6.30;;;1.80;99.90;;;;;;5017654;28;20096;-74
2023/03/12 09:02:43;;;;;;;7.13;5.40;;;1.60;99.90;;;;;;5000663;28;20050;-72
2023/03/12 09:05:09;;;;;;;7.95;6.38;;;1.80;99.90;;;;;;5017652;28;20050;-73
2023/03/12 09:07:35;;;;;;;7.60;6.00;;;1.50;99.90;;;;;;5017085;28;20104;-73
2023/03/12 09:10:00;;;;;;;9.55;6.05;;;1.40;99.90;;;;;;4999927;28;20034;-73
2023/03/12 09:12:26;;;;;;;9.77;6.60;;;1.70;99.90;;;;;;4999637;28;20479;-73
2023/03/12 09:14:52;;;;;;;9.18;6.13;;;2.00;99.90;;;;;;4984023;28;20129;-73
2023/03/12 09:17:18;;;;;;;7.70;6.10;;;1.80;99.90;;;;;;5017358;28;20493;-74
2023/03/12 09:19:44;;;;;;;9.23;6.72;;;2.00;99.90;;;;;;4983408;28;20073;-73
2023/03/12 09:22:09;;;;;;;8.52;6.60;;;1.50;99.90;;;;;;4983634;28;20046;-72
2023/03/12 09:24:35;;;;;;;7.35;6.07;;;1.70;99.90;;;;;;4999396;28;20525;-74
2023/03/12 09:27:03;;;;;;;7.78;5.70;;;1.90;99.90;;;;;;5017328;28;20045;-74
2023/03/12 09:29:32;;;;;;;10.13;6.45;;;1.50;99.90;;;;;;5018707;28;20049;-73
2023/03/12 09:31:58;;;;;;;9.60;6.65;;;1.60;99.90;;;;;;5017149;28;20050;-75
2023/03/12 09:34:24;;;;;;;10.48;6.75;;;2.10;99.90;;;;;;5000133;28;20045;-72
2023/03/12 09:36:49;;;;;;;9.25;6.53;;;1.60;99.90;;;;;;4999343;28;20099;-73
2023/03/12 09:39:15;;;;;;;8.27;6.72;;;1.80;99.90;;;;;;4999352;28;20057;-73
2023/03/12 09:41:46;;;;;;;10.18;6.75;;;1.80;99.90;;;;;;4999558;28;20137;-73
2023/03/12 09:44:21;;;;;;;11.18;7.45;;;2.30;99.90;;;;;;5016982;28;20108;-73
2023/03/12 09:46:48;;;;;;;11.80;6.93;;;1.60;99.90;;;;;;4999249;28;20508;-73
2023/03/12 09:49:29;;;;;;;8.05;6.35;;;1.90;99.90;;;;;;4983109;28;20524;-72
2023/03/12 09:51:57;;;;;;;11.07;7.25;;;2.20;99.90;;;;;;4984979;28;20489;-72
2023/03/12 09:54:44;;;;;;;8.80;6.07;;;2.10;99.90;;;;;;4983338;28;20060;-73
2023/03/12 09:57:20;;;;;;;10.13;6.80;;;1.60;99.90;;;;;;5016649;28;20054;-73
2023/03/12 09:59:46;;;;;;;10.52;6.85;;;2.30;99.90;;;;;;5016703;28;20054;-73
2023/03/12 10:02:51;;;;;;;9.25;6.90;;;1.90;99.90;;;;;;4998627;28;20065;-73
2023/03/12 10:05:37;;;;;;;8.55;7.10;;;1.80;99.90;;;;;;5016557;28;20085;-72
2023/03/12 10:08:23;;;;;;;10.27;7.43;;;1.50;99.90;;;;;;5015929;28;20050;-73
2023/03/12 10:11:01;;;;;;;9.73;7.07;;;1.60;99.90;;;;;;4999120;28;20057;-73
2023/03/12 10:13:35;;;;;;;11.85;7.40;;;1.60;99.90;;;;;;5016606;28;20450;-73
2023/03/12 10:16:38;;;;;;;8.85;7.20;;;1.60;99.90;;;;;;4999097;28;20045;-72
2023/03/12 10:19:41;;;;;;;11.15;7.82;;;1.60;99.90;;;;;;5015894;28;20081;-72
2023/03/12 10:22:36;;;;;;;9.88;7.57;;;1.60;99.90;;;;;;4999056;28;20437;-73
2023/03/12 10:25:23;;;;;;;10.13;7.55;;;1.60;99.90;;;;;;4964107;28;20441;-73
2023/03/12 10:27:49;;;;;;;9.38;7.75;;;1.60;99.90;;;;;;4998947;28;20046;-72
2023/03/12 10:30:27;;;;;;;9.70;7.93;;;1.80;99.90;;;;;;5017219;28;20042;-73
2023/03/12 10:33:03;;;;;;;10.85;7.80;;;1.60;99.90;;;;;;4999755;28;20080;-72
2023/03/12 10:35:29;;;;;;;8.80;7.80;;;2.00;99.90;;;;;;4982378;28;20054;-73
2023/03/12 10:38:02;;;;;;;10.75;6.97;;;2.20;99.90;;;;;;4981902;28;20046;-72
2023/03/12 10:40:32;;;;;;;9.50;7.57;;;1.60;99.90;;;;;;4998609;28;20085;-72
2023/03/12 10:42:58;;;;;;;10.70;8.13;;;1.70;99.90;;;;;;5016065;28;20054;-71
2023/03/12 10:45:46;;;;;;;9.02;8.02;;;1.90;99.90;;;;;;4998763;28;20498;-72
2023/03/12 10:48:22;;;;;;;10.70;7.68;;;1.80;99.90;;;;;;4998292;28;20046;-73
2023/03/12 10:51:14;;;;;;;11.02;7.80;;;2.20;99.90;;;;;;4998277;28;20050;-73
2023/03/12 10:53:43;;;;;;;11.90;8.13;;;2.00;99.90;;;;;;5011894;28;20060;-72
2023/03/12 10:56:19;;;;;;;9.65;7.35;;;2.00;99.90;;;;;;4998084;28;20050;-72
2023/03/12 10:58:51;;;;;;;12.00;8.13;;;2.30;99.90;;;;;;4998651;28;20108;-74
2023/03/12 11:01:30;;;;;;;11.73;9.20;;;1.90;99.90;;;;;;5015569;28;20061;-72
2023/03/12 11:04:31;;;;;;;11.50;8.75;;;2.00;99.90;;;;;;4997718;28;20088;-74
2023/03/12 11:07:31;;;;;;;11.30;8.05;;;1.90;99.90;;;;;;4997474;28;20061;-73
2023/03/12 11:10:06;;;;;;;11.15;8.60;;;2.00;99.90;;;;;;4981616;28;20052;-71
2023/03/12 11:12:34;;;;;;;13.30;9.38;;;2.10;99.90;;;;;;4997453;28;20046;-72
2023/03/12 11:15:19;;;;;;;11.30;8.15;;;2.30;99.90;;;;;;5015027;28;20050;-73
2023/03/12 11:17:45;;;;;;;10.73;8.27;;;2.10;99.90;;;;;;5015061;28;20060;-72
2023/03/12 11:20:37;;;;;;;14.18;9.10;;;2.10;99.90;;;;;;5015017;28;20482;-72
2023/03/12 11:23:25;;;;;;;12.30;8.30;;;2.10;99.90;;;;;;4977808;28;20054;-73
2023/03/12 11:26:01;;;;;;;13.20;9.43;;;2.90;99.90;;;;;;4981575;28;20045;-71
2023/03/12 11:29:20;;;;;;;12.27;8.55;;;2.20;99.90;;;;;;4997518;28;20504;-72
2023/03/12 11:32:15;;;;;;;12.80;9.70;;;2.00;99.90;;;;;;5012181;28;20084;-72
2023/03/12 11:34:41;;;;;;;11.55;8.50;;;2.20;99.90;;;;;;4998055;28;20052;-72
2023/03/12 11:37:18;;;;;;;11.05;8.48;;;2.10;99.90;;;;;;4981016;28;20086;-72
2023/03/12 11:39:44;;;;;;;15.15;9.27;;;2.10;99.90;;;;;;5014825;28;20054;-72
2023/03/12 11:42:43;;;;;;;12.75;9.02;;;2.20;99.90;;;;;;4996959;28;20406;-72
2023/03/12 11:45:27;;;;;;;13.77;8.57;;;2.10;99.90;;;;;;4997655;28;20054;-72
2023/03/12 11:48:01;;;;;;;9.98;8.55;;;2.10;99.90;;;;;;4997412;28;20049;-72
2023/03/12 11:51:12;;;;;;;12.68;9.40;;;2.00;99.90;;;;;;4997105;28;20145;-72
2023/03/12 11:54:01;;;;;;;10.85;8.38;;;2.30;99.90;;;;;;4977592;28;20141;-71
2023/03/12 11:56:43;;;;;;;13.95;8.93;;;2.50;99.90;;;;;;5014316;28;20046;-71
2023/03/12 11:59:26;;;;;;;13.55;9.40;;;2.30;99.90;;;;;;5014463;28;20450;-72
2023/03/12 12:02:09;;;;;;;12.55;9.38;;;2.50;99.90;;;;;;5014495;28;20076;-72
2023/03/12 12:05:09;;;;;;;13.65;10.00;;;2.30;99.90;;;;;;4997201;28;20129;-72
2023/03/12 12:08:02;;;;;;;13.32;9.57;;;2.30;99.90;;;;;;4996418;28;20131;-71
2023/03/12 12:10:46;;;;;;;12.35;9.27;;;2.40;99.90;;;;;;5014257;28;20092;-71
2023/03/12 12:13:30;;;;;;;11.50;9.75;;;2.40;99.90;;;;;;5014612;28;20053;-73
2023/03/12 12:16:30;;;;;;;13.93;9.63;;;3.10;99.90;;;;;;5016096;28;20143;-72
2023/03/12 12:19:20;;;;;;;14.07;10.48;;;2.40;99.90;;;;;;5014520;28;20092;-72
2023/03/12 12:22:13;;;;;;;13.73;10.27;;;2.60;99.90;;;;;;5014156;28;20046;-72
2023/03/12 12:24:42;;;;;;;13.43;9.52;;;2.70;99.90;;;;;;5014263;28;20088;-71
2023/03/12 12:27:29;;;;;;;15.77;10.90;;;2.80;99.90;;;;;;5014083;28;20064;-73
2023/03/12 12:30:13;;;;;;;16.63;11.48;;;2.80;99.90;;;;;;4996810;28;20092;-71
2023/03/12 12:33:00;;;;;;;16.38;10.68;;;2.90;99.90;;;;;;4997285;28;20058;-71
2023/03/12 12:35:39;;;;;;;16.30;13.10;;;3.00;99.90;;;;;;5015642;28;20454;-71
2023/03/12 12:38:33;;;;;;;19.30;13.85;;;2.80;99.90;;;;;;5013787;28;20402;-72
2023/03/12 12:41:12;;;;;;;20.30;16.40;;;3.70;99.90;;;;;;4985705;28;20054;-72
2023/03/12 12:43:47;;;;;;;19.48;16.35;;;3.20;99.90;;;;;;5014100;28;20398;-75
2023/03/12 12:46:19;;;;;;;14.55;12.30;;;2.90;99.90;;;;;;5014093;28;20123;-71
2023/03/12 12:49:10;;;;;;;18.73;14.57;;;3.00;99.90;;;;;;5013711;28;20050;-71
2023/03/12 12:51:43;;;;;;;26.23;21.40;;;3.00;99.90;;;;;;4996675;28;20050;-72
2023/03/12 12:54:15;;;;;;;20.80;17.65;;;3.50;99.90;;;;;;4996455;28;20076;-72
2023/03/12 12:57:03;;;;;;;19.67;16.52;;;3.10;99.90;;;;;;4996415;28;20053;-75
2023/03/12 12:59:41;;;;;;;19.88;14.05;;;3.20;99.90;;;;;;5013623;28;20124;-71
2023/03/12 13:02:37;;;;;;;14.35;11.10;;;3.30;99.90;;;;;;5013950;28;20096;-72
2023/03/12 13:05:02;;;;;;;15.55;11.27;;;3.60;99.90;;;;;;4978571;28;20124;-73
2023/03/12 13:07:30;;;;;;;17.02;12.65;;;3.50;99.90;;;;;;4995736;28;20485;-72
2023/03/12 13:09:57;;;;;;;14.52;11.90;;;4.30;99.90;;;;;;4996087;28;20089;-73